<?xml version="1.0" encoding="UTF-8" standalone="no" ?>
<gpx xmlns="http://www.topografix.com/GPX/1/1" xmlns:xsi="http://www.w3.org/2001/XMLSchema-instance" xsi:schemaLocation="http://www.topografix.com/GPX/1/1 http://www.topografix.com/GPX/1/1/gpx.xsd" version="1.1" creator="VisuGPX - https://www.visugpx.com">
  <metadata>
    <name>Roybon et Bergerie de la Fauge</name>
    <desc><![CDATA[Au départ des Gauchets, rando vers Roybon et la Bergerie de la Fauge. Retour par les Glovettes.
]]></desc>
  </metadata>
  <trk>
    <name><![CDATA[2020-01-28 16:01:31]]></name>
    <trkseg>
      <trkpt lat="45.0647" lon="5.55626">
        <ele>1032.5899658203</ele>
        <time>2020-01-28T08:24:21Z</time>
      </trkpt>
      <trkpt lat="45.06476" lon="5.55604">
        <ele>1033.5500488281</ele>
        <time>2020-01-28T08:24:48Z</time>
      </trkpt>
      <trkpt lat="45.06457" lon="5.556">
        <ele>1035</ele>
        <time>2020-01-28T08:27:14Z</time>
      </trkpt>
      <trkpt lat="45.06448" lon="5.55596">
        <ele>1035</ele>
        <time>2020-01-28T08:27:23Z</time>
      </trkpt>
      <trkpt lat="45.06488" lon="5.55642">
        <ele>1033.0699462891</ele>
        <time>2020-01-28T08:30:03Z</time>
      </trkpt>
      <trkpt lat="45.06449" lon="5.55655">
        <ele>1036.9200439453</ele>
        <time>2020-01-28T08:32:30Z</time>
      </trkpt>
      <trkpt lat="45.06441" lon="5.55667">
        <ele>1037.8800048828</ele>
        <time>2020-01-28T08:32:42Z</time>
      </trkpt>
      <trkpt lat="45.06434" lon="5.55679">
        <ele>1040.2800292969</ele>
        <time>2020-01-28T08:32:58Z</time>
      </trkpt>
      <trkpt lat="45.06425" lon="5.5569">
        <ele>1042.2099609375</ele>
        <time>2020-01-28T08:33:13Z</time>
      </trkpt>
      <trkpt lat="45.06415" lon="5.55699">
        <ele>1044.6099853516</ele>
        <time>2020-01-28T08:33:28Z</time>
      </trkpt>
      <trkpt lat="45.06402" lon="5.55708">
        <ele>1047.0100097656</ele>
        <time>2020-01-28T08:33:52Z</time>
      </trkpt>
      <trkpt lat="45.0639" lon="5.55724">
        <ele>1050.8599853516</ele>
        <time>2020-01-28T08:34:21Z</time>
      </trkpt>
      <trkpt lat="45.0638" lon="5.55743">
        <ele>1053.7399902344</ele>
        <time>2020-01-28T08:34:58Z</time>
      </trkpt>
      <trkpt lat="45.06374" lon="5.55758">
        <ele>1056.1500244141</ele>
        <time>2020-01-28T08:35:12Z</time>
      </trkpt>
      <trkpt lat="45.06365" lon="5.55771">
        <ele>1058.5500488281</ele>
        <time>2020-01-28T08:35:26Z</time>
      </trkpt>
      <trkpt lat="45.06356" lon="5.55785">
        <ele>1062.3900146484</ele>
        <time>2020-01-28T08:35:48Z</time>
      </trkpt>
      <trkpt lat="45.06347" lon="5.55795">
        <ele>1061.9100341797</ele>
        <time>2020-01-28T08:36:11Z</time>
      </trkpt>
      <trkpt lat="45.06339" lon="5.55804">
        <ele>1062.8699951172</ele>
        <time>2020-01-28T08:36:23Z</time>
      </trkpt>
      <trkpt lat="45.06339" lon="5.55817">
        <ele>1063.8399658203</ele>
        <time>2020-01-28T08:36:33Z</time>
      </trkpt>
      <trkpt lat="45.06337" lon="5.55831">
        <ele>1064.8000488281</ele>
        <time>2020-01-28T08:36:44Z</time>
      </trkpt>
      <trkpt lat="45.06331" lon="5.55844">
        <ele>1065.2800292969</ele>
        <time>2020-01-28T08:36:54Z</time>
      </trkpt>
      <trkpt lat="45.06325" lon="5.55852">
        <ele>1065.2800292969</ele>
        <time>2020-01-28T08:37:04Z</time>
      </trkpt>
      <trkpt lat="45.06314" lon="5.55858">
        <ele>1066.2399902344</ele>
        <time>2020-01-28T08:37:15Z</time>
      </trkpt>
      <trkpt lat="45.06308" lon="5.55868">
        <ele>1066.2399902344</ele>
        <time>2020-01-28T08:37:25Z</time>
      </trkpt>
      <trkpt lat="45.06299" lon="5.55872">
        <ele>1067.6800537109</ele>
        <time>2020-01-28T08:37:38Z</time>
      </trkpt>
      <trkpt lat="45.0629" lon="5.55859">
        <ele>1068.1600341797</ele>
        <time>2020-01-28T08:37:58Z</time>
      </trkpt>
      <trkpt lat="45.06292" lon="5.55869">
        <ele>1068.6400146484</ele>
        <time>2020-01-28T08:38:26Z</time>
      </trkpt>
      <trkpt lat="45.06295" lon="5.55883">
        <ele>1068.6400146484</ele>
        <time>2020-01-28T08:38:40Z</time>
      </trkpt>
      <trkpt lat="45.06298" lon="5.55896">
        <ele>1070.0799560547</ele>
        <time>2020-01-28T08:38:53Z</time>
      </trkpt>
      <trkpt lat="45.06299" lon="5.55909">
        <ele>1072.4899902344</ele>
        <time>2020-01-28T08:39:06Z</time>
      </trkpt>
      <trkpt lat="45.06295" lon="5.55929">
        <ele>1074.4100341797</ele>
        <time>2020-01-28T08:39:29Z</time>
      </trkpt>
      <trkpt lat="45.06293" lon="5.55951">
        <ele>1077.2900390625</ele>
        <time>2020-01-28T08:40:11Z</time>
      </trkpt>
      <trkpt lat="45.06289" lon="5.55976">
        <ele>1079.6999511719</ele>
        <time>2020-01-28T08:40:34Z</time>
      </trkpt>
      <trkpt lat="45.06287" lon="5.5599">
        <ele>1081.1400146484</ele>
        <time>2020-01-28T08:40:46Z</time>
      </trkpt>
      <trkpt lat="45.06287" lon="5.56003">
        <ele>1082.5799560547</ele>
        <time>2020-01-28T08:40:58Z</time>
      </trkpt>
      <trkpt lat="45.06285" lon="5.56018">
        <ele>1083.5400390625</ele>
        <time>2020-01-28T08:41:10Z</time>
      </trkpt>
      <trkpt lat="45.06287" lon="5.56032">
        <ele>1084.0200195312</ele>
        <time>2020-01-28T08:41:26Z</time>
      </trkpt>
      <trkpt lat="45.06292" lon="5.56045">
        <ele>1082.5799560547</ele>
        <time>2020-01-28T08:41:39Z</time>
      </trkpt>
      <trkpt lat="45.06299" lon="5.56087">
        <ele>1085.4699707031</ele>
        <time>2020-01-28T08:43:26Z</time>
      </trkpt>
      <trkpt lat="45.06248" lon="5.56347">
        <ele>1097.4799804688</ele>
        <time>2020-01-28T08:48:43Z</time>
      </trkpt>
      <trkpt lat="45.06251" lon="5.56366">
        <ele>1097.4799804688</ele>
        <time>2020-01-28T08:48:56Z</time>
      </trkpt>
      <trkpt lat="45.06255" lon="5.56497">
        <ele>1099.4000244141</ele>
        <time>2020-01-28T08:50:56Z</time>
      </trkpt>
      <trkpt lat="45.06212" lon="5.56651">
        <ele>1096.0400390625</ele>
        <time>2020-01-28T08:53:16Z</time>
      </trkpt>
      <trkpt lat="45.062" lon="5.56755">
        <ele>1101.8100585938</ele>
        <time>2020-01-28T09:04:13Z</time>
      </trkpt>
      <trkpt lat="45.06167" lon="5.56781">
        <ele>1107.0999755859</ele>
        <time>2020-01-28T09:06:28Z</time>
      </trkpt>
      <trkpt lat="45.06131" lon="5.56853">
        <ele>1121.5200195312</ele>
        <time>2020-01-28T09:09:26Z</time>
      </trkpt>
      <trkpt lat="45.06081" lon="5.56988">
        <ele>1142.6600341797</ele>
        <time>2020-01-28T09:21:53Z</time>
      </trkpt>
      <trkpt lat="45.06036" lon="5.57046">
        <ele>1148.9100341797</ele>
        <time>2020-01-28T09:23:15Z</time>
      </trkpt>
      <trkpt lat="45.05975" lon="5.57162">
        <ele>1167.1800537109</ele>
        <time>2020-01-28T09:28:44Z</time>
      </trkpt>
      <trkpt lat="45.05963" lon="5.57206">
        <ele>1171.9799804688</ele>
        <time>2020-01-28T09:29:43Z</time>
      </trkpt>
      <trkpt lat="45.05937" lon="5.57509">
        <ele>1204.1899414062</ele>
        <time>2020-01-28T09:36:44Z</time>
      </trkpt>
      <trkpt lat="45.05941" lon="5.57608">
        <ele>1218.1300048828</ele>
        <time>2020-01-28T09:38:50Z</time>
      </trkpt>
      <trkpt lat="45.05945" lon="5.57686">
        <ele>1234.4699707031</ele>
        <time>2020-01-28T09:40:47Z</time>
      </trkpt>
      <trkpt lat="45.05491" lon="5.58331">
        <ele>1367.1300048828</ele>
        <time>2020-01-28T10:12:31Z</time>
      </trkpt>
      <trkpt lat="45.05377" lon="5.585">
        <ele>1409.9100341797</ele>
        <time>2020-01-28T10:25:33Z</time>
      </trkpt>
      <trkpt lat="45.05341" lon="5.58509">
        <ele>1418.5600585938</ele>
        <time>2020-01-28T10:27:34Z</time>
      </trkpt>
      <trkpt lat="45.05331" lon="5.58506">
        <ele>1420.4899902344</ele>
        <time>2020-01-28T10:28:22Z</time>
      </trkpt>
      <trkpt lat="45.05318" lon="5.58502">
        <ele>1421.9300537109</ele>
        <time>2020-01-28T10:28:41Z</time>
      </trkpt>
      <trkpt lat="45.05318" lon="5.58513">
        <ele>1421.4499511719</ele>
        <time>2020-01-28T10:31:25Z</time>
      </trkpt>
      <trkpt lat="45.05318" lon="5.58526">
        <ele>1423.3699951172</ele>
        <time>2020-01-28T10:32:10Z</time>
      </trkpt>
      <trkpt lat="45.05325" lon="5.58535">
        <ele>1425.7700195312</ele>
        <time>2020-01-28T10:32:29Z</time>
      </trkpt>
      <trkpt lat="45.05349" lon="5.58557">
        <ele>1430.5799560547</ele>
        <time>2020-01-28T10:33:33Z</time>
      </trkpt>
      <trkpt lat="45.05344" lon="5.58575">
        <ele>1432.9799804688</ele>
        <time>2020-01-28T10:34:29Z</time>
      </trkpt>
      <trkpt lat="45.05335" lon="5.58577">
        <ele>1434.4200439453</ele>
        <time>2020-01-28T10:34:42Z</time>
      </trkpt>
      <trkpt lat="45.05325" lon="5.58581">
        <ele>1435.8699951172</ele>
        <time>2020-01-28T10:34:57Z</time>
      </trkpt>
      <trkpt lat="45.0532" lon="5.58578">
        <ele>1424.3299560547</ele>
        <time>2020-01-28T10:42:35Z</time>
      </trkpt>
      <trkpt lat="45.05308" lon="5.5858">
        <ele>1424.3299560547</ele>
        <time>2020-01-28T10:42:59Z</time>
      </trkpt>
      <trkpt lat="45.05297" lon="5.58582">
        <ele>1426.25</ele>
        <time>2020-01-28T10:43:12Z</time>
      </trkpt>
      <trkpt lat="45.05286" lon="5.58587">
        <ele>1426.7299804688</ele>
        <time>2020-01-28T10:43:37Z</time>
      </trkpt>
      <trkpt lat="45.05273" lon="5.58592">
        <ele>1425.7700195312</ele>
        <time>2020-01-28T10:43:56Z</time>
      </trkpt>
      <trkpt lat="45.05252" lon="5.58601">
        <ele>1424.3299560547</ele>
        <time>2020-01-28T10:44:29Z</time>
      </trkpt>
      <trkpt lat="45.05241" lon="5.58605">
        <ele>1423.8499755859</ele>
        <time>2020-01-28T10:44:44Z</time>
      </trkpt>
      <trkpt lat="45.05232" lon="5.58614">
        <ele>1423.3699951172</ele>
        <time>2020-01-28T10:44:57Z</time>
      </trkpt>
      <trkpt lat="45.05225" lon="5.58624">
        <ele>1423.3699951172</ele>
        <time>2020-01-28T10:45:09Z</time>
      </trkpt>
      <trkpt lat="45.05218" lon="5.58635">
        <ele>1423.3699951172</ele>
        <time>2020-01-28T10:45:20Z</time>
      </trkpt>
      <trkpt lat="45.05212" lon="5.58648">
        <ele>1423.3699951172</ele>
        <time>2020-01-28T10:45:38Z</time>
      </trkpt>
      <trkpt lat="45.05199" lon="5.58657">
        <ele>1420.9699707031</ele>
        <time>2020-01-28T10:46:09Z</time>
      </trkpt>
      <trkpt lat="45.05173" lon="5.58663">
        <ele>1419.0400390625</ele>
        <time>2020-01-28T10:46:41Z</time>
      </trkpt>
      <trkpt lat="45.0516" lon="5.58646">
        <ele>1420.4899902344</ele>
        <time>2020-01-28T10:47:13Z</time>
      </trkpt>
      <trkpt lat="45.05151" lon="5.58623">
        <ele>1419.0400390625</ele>
        <time>2020-01-28T10:47:55Z</time>
      </trkpt>
      <trkpt lat="45.05141" lon="5.58612">
        <ele>1418.5600585938</ele>
        <time>2020-01-28T10:48:09Z</time>
      </trkpt>
      <trkpt lat="45.05125" lon="5.58603">
        <ele>1419.0400390625</ele>
        <time>2020-01-28T10:48:28Z</time>
      </trkpt>
      <trkpt lat="45.05112" lon="5.58593">
        <ele>1420</ele>
        <time>2020-01-28T10:49:03Z</time>
      </trkpt>
      <trkpt lat="45.05149" lon="5.58462">
        <ele>1429.6199951172</ele>
        <time>2020-01-28T10:53:42Z</time>
      </trkpt>
      <trkpt lat="45.05138" lon="5.58452">
        <ele>1430.0999755859</ele>
        <time>2020-01-28T10:54:08Z</time>
      </trkpt>
      <trkpt lat="45.05113" lon="5.58443">
        <ele>1426.7299804688</ele>
        <time>2020-01-28T10:54:35Z</time>
      </trkpt>
      <trkpt lat="45.05097" lon="5.58436">
        <ele>1423.8499755859</ele>
        <time>2020-01-28T10:54:54Z</time>
      </trkpt>
      <trkpt lat="45.05007" lon="5.58439">
        <ele>1410.8699951172</ele>
        <time>2020-01-28T10:56:49Z</time>
      </trkpt>
      <trkpt lat="45.04999" lon="5.5844">
        <ele>1408.9499511719</ele>
        <time>2020-01-28T10:57:07Z</time>
      </trkpt>
      <trkpt lat="45.04975" lon="5.58452">
        <ele>1403.1800537109</ele>
        <time>2020-01-28T10:57:54Z</time>
      </trkpt>
      <trkpt lat="45.04842" lon="5.58508">
        <ele>1381.0699462891</ele>
        <time>2020-01-28T11:02:59Z</time>
      </trkpt>
      <trkpt lat="45.04833" lon="5.58482">
        <ele>1372.9000244141</ele>
        <time>2020-01-28T11:04:41Z</time>
      </trkpt>
      <trkpt lat="45.04809" lon="5.58406">
        <ele>1367.6099853516</ele>
        <time>2020-01-28T11:06:55Z</time>
      </trkpt>
      <trkpt lat="45.04776" lon="5.58307">
        <ele>1356.5600585938</ele>
        <time>2020-01-28T11:08:30Z</time>
      </trkpt>
      <trkpt lat="45.04697" lon="5.58261">
        <ele>1343.0999755859</ele>
        <time>2020-01-28T11:12:44Z</time>
      </trkpt>
      <trkpt lat="45.04682" lon="5.58254">
        <ele>1342.6199951172</ele>
        <time>2020-01-28T11:13:01Z</time>
      </trkpt>
      <trkpt lat="45.04654" lon="5.58251">
        <ele>1342.1400146484</ele>
        <time>2020-01-28T11:13:35Z</time>
      </trkpt>
      <trkpt lat="45.04644" lon="5.58249">
        <ele>1340.6999511719</ele>
        <time>2020-01-28T11:13:47Z</time>
      </trkpt>
      <trkpt lat="45.04635" lon="5.58245">
        <ele>1339.7299804688</ele>
        <time>2020-01-28T11:13:58Z</time>
      </trkpt>
      <trkpt lat="45.04625" lon="5.58237">
        <ele>1337.8100585938</ele>
        <time>2020-01-28T11:14:15Z</time>
      </trkpt>
      <trkpt lat="45.04611" lon="5.58221">
        <ele>1334.4499511719</ele>
        <time>2020-01-28T11:14:37Z</time>
      </trkpt>
      <trkpt lat="45.04595" lon="5.5821">
        <ele>1335.4100341797</ele>
        <time>2020-01-28T11:16:02Z</time>
      </trkpt>
      <trkpt lat="45.04577" lon="5.58206">
        <ele>1336.3699951172</ele>
        <time>2020-01-28T11:16:21Z</time>
      </trkpt>
      <trkpt lat="45.04565" lon="5.58204">
        <ele>1336.3699951172</ele>
        <time>2020-01-28T11:16:35Z</time>
      </trkpt>
      <trkpt lat="45.04555" lon="5.58203">
        <ele>1336.8499755859</ele>
        <time>2020-01-28T11:16:47Z</time>
      </trkpt>
      <trkpt lat="45.04543" lon="5.58204">
        <ele>1337.8100585938</ele>
        <time>2020-01-28T11:16:59Z</time>
      </trkpt>
      <trkpt lat="45.04533" lon="5.58201">
        <ele>1337.8100585938</ele>
        <time>2020-01-28T11:17:12Z</time>
      </trkpt>
      <trkpt lat="45.04524" lon="5.58207">
        <ele>1338.2900390625</ele>
        <time>2020-01-28T11:17:23Z</time>
      </trkpt>
      <trkpt lat="45.04509" lon="5.58207">
        <ele>1339.25</ele>
        <time>2020-01-28T11:18:09Z</time>
      </trkpt>
      <trkpt lat="45.04499" lon="5.58212">
        <ele>1339.25</ele>
        <time>2020-01-28T11:18:21Z</time>
      </trkpt>
      <trkpt lat="45.04489" lon="5.58217">
        <ele>1339.25</ele>
        <time>2020-01-28T11:18:32Z</time>
      </trkpt>
      <trkpt lat="45.04477" lon="5.58224">
        <ele>1339.25</ele>
        <time>2020-01-28T11:18:48Z</time>
      </trkpt>
      <trkpt lat="45.04466" lon="5.58228">
        <ele>1339.25</ele>
        <time>2020-01-28T11:19:01Z</time>
      </trkpt>
      <trkpt lat="45.04453" lon="5.58235">
        <ele>1340.6999511719</ele>
        <time>2020-01-28T11:19:18Z</time>
      </trkpt>
      <trkpt lat="45.04435" lon="5.58235">
        <ele>1341.6600341797</ele>
        <time>2020-01-28T11:19:36Z</time>
      </trkpt>
      <trkpt lat="45.04426" lon="5.58234">
        <ele>1344.0600585938</ele>
        <time>2020-01-28T11:20:50Z</time>
      </trkpt>
      <trkpt lat="45.04411" lon="5.58232">
        <ele>1344.0600585938</ele>
        <time>2020-01-28T11:21:24Z</time>
      </trkpt>
      <trkpt lat="45.04401" lon="5.58231">
        <ele>1344.0600585938</ele>
        <time>2020-01-28T11:21:37Z</time>
      </trkpt>
      <trkpt lat="45.04386" lon="5.5823">
        <ele>1344.0600585938</ele>
        <time>2020-01-28T11:22:02Z</time>
      </trkpt>
      <trkpt lat="45.0438" lon="5.58222">
        <ele>1344.0600585938</ele>
        <time>2020-01-28T11:22:25Z</time>
      </trkpt>
      <trkpt lat="45.04375" lon="5.58211">
        <ele>1343.0999755859</ele>
        <time>2020-01-28T11:22:45Z</time>
      </trkpt>
      <trkpt lat="45.04364" lon="5.5819">
        <ele>1342.1400146484</ele>
        <time>2020-01-28T11:24:05Z</time>
      </trkpt>
      <trkpt lat="45.04366" lon="5.58177">
        <ele>1340.6999511719</ele>
        <time>2020-01-28T11:24:19Z</time>
      </trkpt>
      <trkpt lat="45.04368" lon="5.58162">
        <ele>1339.7299804688</ele>
        <time>2020-01-28T11:24:34Z</time>
      </trkpt>
      <trkpt lat="45.04372" lon="5.58149">
        <ele>1338.2900390625</ele>
        <time>2020-01-28T11:24:46Z</time>
      </trkpt>
      <trkpt lat="45.04377" lon="5.58137">
        <ele>1337.3299560547</ele>
        <time>2020-01-28T11:24:57Z</time>
      </trkpt>
      <trkpt lat="45.04385" lon="5.58127">
        <ele>1337.3299560547</ele>
        <time>2020-01-28T11:25:10Z</time>
      </trkpt>
      <trkpt lat="45.0439" lon="5.58114">
        <ele>1335.8900146484</ele>
        <time>2020-01-28T11:25:24Z</time>
      </trkpt>
      <trkpt lat="45.04398" lon="5.58097">
        <ele>1335.4100341797</ele>
        <time>2020-01-28T11:25:38Z</time>
      </trkpt>
      <trkpt lat="45.04404" lon="5.58086">
        <ele>1334.9300537109</ele>
        <time>2020-01-28T11:25:49Z</time>
      </trkpt>
      <trkpt lat="45.04413" lon="5.58073">
        <ele>1333.4899902344</ele>
        <time>2020-01-28T11:26:18Z</time>
      </trkpt>
      <trkpt lat="45.04422" lon="5.58067">
        <ele>1332.0400390625</ele>
        <time>2020-01-28T11:26:30Z</time>
      </trkpt>
      <trkpt lat="45.04429" lon="5.58058">
        <ele>1331.0799560547</ele>
        <time>2020-01-28T11:26:41Z</time>
      </trkpt>
      <trkpt lat="45.04437" lon="5.58048">
        <ele>1328.1999511719</ele>
        <time>2020-01-28T11:26:57Z</time>
      </trkpt>
      <trkpt lat="45.04446" lon="5.5804">
        <ele>1331.0799560547</ele>
        <time>2020-01-28T11:27:13Z</time>
      </trkpt>
      <trkpt lat="45.04453" lon="5.5803">
        <ele>1330.5999755859</ele>
        <time>2020-01-28T11:27:27Z</time>
      </trkpt>
      <trkpt lat="45.04463" lon="5.58018">
        <ele>1332.0400390625</ele>
        <time>2020-01-28T11:27:49Z</time>
      </trkpt>
      <trkpt lat="45.04474" lon="5.58008">
        <ele>1332.5200195312</ele>
        <time>2020-01-28T11:28:07Z</time>
      </trkpt>
      <trkpt lat="45.04484" lon="5.58">
        <ele>1332.0400390625</ele>
        <time>2020-01-28T11:28:19Z</time>
      </trkpt>
      <trkpt lat="45.04493" lon="5.57988">
        <ele>1333.9699707031</ele>
        <time>2020-01-28T11:28:39Z</time>
      </trkpt>
      <trkpt lat="45.04499" lon="5.57975">
        <ele>1335.4100341797</ele>
        <time>2020-01-28T11:28:54Z</time>
      </trkpt>
      <trkpt lat="45.04516" lon="5.57942">
        <ele>1337.8100585938</ele>
        <time>2020-01-28T11:30:22Z</time>
      </trkpt>
      <trkpt lat="45.04501" lon="5.57911">
        <ele>1338.7700195312</ele>
        <time>2020-01-28T12:06:48Z</time>
      </trkpt>
      <trkpt lat="45.04498" lon="5.579">
        <ele>1338.7700195312</ele>
        <time>2020-01-28T12:07:15Z</time>
      </trkpt>
      <trkpt lat="45.04501" lon="5.579">
        <ele>1339.7299804688</ele>
        <time>2020-01-28T12:08:50Z</time>
      </trkpt>
      <trkpt lat="45.04505" lon="5.57912">
        <ele>1341.1800537109</ele>
        <time>2020-01-28T12:09:05Z</time>
      </trkpt>
      <trkpt lat="45.04507" lon="5.57894">
        <ele>1340.6999511719</ele>
        <time>2020-01-28T12:15:02Z</time>
      </trkpt>
      <trkpt lat="45.04507" lon="5.57873">
        <ele>1338.2900390625</ele>
        <time>2020-01-28T12:15:18Z</time>
      </trkpt>
      <trkpt lat="45.04515" lon="5.57841">
        <ele>1335.4100341797</ele>
        <time>2020-01-28T12:15:44Z</time>
      </trkpt>
      <trkpt lat="45.04525" lon="5.57816">
        <ele>1333.4899902344</ele>
        <time>2020-01-28T12:16:05Z</time>
      </trkpt>
      <trkpt lat="45.04535" lon="5.57792">
        <ele>1329.6400146484</ele>
        <time>2020-01-28T12:16:33Z</time>
      </trkpt>
      <trkpt lat="45.04564" lon="5.57776">
        <ele>1324.8299560547</ele>
        <time>2020-01-28T12:17:35Z</time>
      </trkpt>
      <trkpt lat="45.0459" lon="5.57743">
        <ele>1320.0300292969</ele>
        <time>2020-01-28T12:18:41Z</time>
      </trkpt>
      <trkpt lat="45.04597" lon="5.57729">
        <ele>1319.0699462891</ele>
        <time>2020-01-28T12:18:55Z</time>
      </trkpt>
      <trkpt lat="45.04602" lon="5.57717">
        <ele>1318.5899658203</ele>
        <time>2020-01-28T12:19:04Z</time>
      </trkpt>
      <trkpt lat="45.04611" lon="5.57707">
        <ele>1317.6199951172</ele>
        <time>2020-01-28T12:19:15Z</time>
      </trkpt>
      <trkpt lat="45.04619" lon="5.57696">
        <ele>1316.6600341797</ele>
        <time>2020-01-28T12:19:26Z</time>
      </trkpt>
      <trkpt lat="45.04642" lon="5.57656">
        <ele>1311.3800048828</ele>
        <time>2020-01-28T12:20:07Z</time>
      </trkpt>
      <trkpt lat="45.04649" lon="5.57647">
        <ele>1310.4100341797</ele>
        <time>2020-01-28T12:20:18Z</time>
      </trkpt>
      <trkpt lat="45.04659" lon="5.5764">
        <ele>1309.9300537109</ele>
        <time>2020-01-28T12:20:28Z</time>
      </trkpt>
      <trkpt lat="45.0467" lon="5.57632">
        <ele>1309.4499511719</ele>
        <time>2020-01-28T12:20:51Z</time>
      </trkpt>
      <trkpt lat="45.04627" lon="5.57547">
        <ele>1307.0500488281</ele>
        <time>2020-01-28T12:23:57Z</time>
      </trkpt>
      <trkpt lat="45.04626" lon="5.57558">
        <ele>1307.0500488281</ele>
        <time>2020-01-28T12:24:04Z</time>
      </trkpt>
      <trkpt lat="45.04624" lon="5.57567">
        <ele>1307.0500488281</ele>
        <time>2020-01-28T12:24:12Z</time>
      </trkpt>
      <trkpt lat="45.04648" lon="5.57582">
        <ele>1309.9300537109</ele>
        <time>2020-01-28T12:26:22Z</time>
      </trkpt>
      <trkpt lat="45.04655" lon="5.57595">
        <ele>1309.9300537109</ele>
        <time>2020-01-28T12:26:39Z</time>
      </trkpt>
      <trkpt lat="45.04663" lon="5.57613">
        <ele>1309.9300537109</ele>
        <time>2020-01-28T12:26:55Z</time>
      </trkpt>
      <trkpt lat="45.04674" lon="5.5762">
        <ele>1309.9300537109</ele>
        <time>2020-01-28T12:27:08Z</time>
      </trkpt>
      <trkpt lat="45.04685" lon="5.57621">
        <ele>1310.4100341797</ele>
        <time>2020-01-28T12:27:20Z</time>
      </trkpt>
      <trkpt lat="45.04717" lon="5.5755">
        <ele>1318.0999755859</ele>
        <time>2020-01-28T12:30:33Z</time>
      </trkpt>
      <trkpt lat="45.04766" lon="5.5751">
        <ele>1319.0699462891</ele>
        <time>2020-01-28T12:32:09Z</time>
      </trkpt>
      <trkpt lat="45.04779" lon="5.57488">
        <ele>1323.8699951172</ele>
        <time>2020-01-28T12:32:43Z</time>
      </trkpt>
      <trkpt lat="45.04787" lon="5.57475">
        <ele>1327.2399902344</ele>
        <time>2020-01-28T12:33:04Z</time>
      </trkpt>
      <trkpt lat="45.04793" lon="5.57447">
        <ele>1332.0400390625</ele>
        <time>2020-01-28T12:35:02Z</time>
      </trkpt>
      <trkpt lat="45.04781" lon="5.57375">
        <ele>1333.9699707031</ele>
        <time>2020-01-28T12:38:10Z</time>
      </trkpt>
      <trkpt lat="45.04779" lon="5.57355">
        <ele>1332.0400390625</ele>
        <time>2020-01-28T12:38:34Z</time>
      </trkpt>
      <trkpt lat="45.04778" lon="5.5734">
        <ele>1331.0799560547</ele>
        <time>2020-01-28T12:38:47Z</time>
      </trkpt>
      <trkpt lat="45.04779" lon="5.57324">
        <ele>1331.0799560547</ele>
        <time>2020-01-28T12:39:00Z</time>
      </trkpt>
      <trkpt lat="45.04777" lon="5.57309">
        <ele>1331.0799560547</ele>
        <time>2020-01-28T12:39:27Z</time>
      </trkpt>
      <trkpt lat="45.04772" lon="5.57269">
        <ele>1330.5999755859</ele>
        <time>2020-01-28T12:40:02Z</time>
      </trkpt>
      <trkpt lat="45.04774" lon="5.57248">
        <ele>1331.5600585938</ele>
        <time>2020-01-28T12:40:20Z</time>
      </trkpt>
      <trkpt lat="45.04776" lon="5.57233">
        <ele>1333.4899902344</ele>
        <time>2020-01-28T12:40:36Z</time>
      </trkpt>
      <trkpt lat="45.04785" lon="5.57188">
        <ele>1335.8900146484</ele>
        <time>2020-01-28T12:41:23Z</time>
      </trkpt>
      <trkpt lat="45.04791" lon="5.5715">
        <ele>1336.3699951172</ele>
        <time>2020-01-28T12:42:15Z</time>
      </trkpt>
      <trkpt lat="45.04803" lon="5.5712">
        <ele>1336.8499755859</ele>
        <time>2020-01-28T12:42:50Z</time>
      </trkpt>
      <trkpt lat="45.04826" lon="5.57073">
        <ele>1337.8100585938</ele>
        <time>2020-01-28T12:43:27Z</time>
      </trkpt>
      <trkpt lat="45.04836" lon="5.57056">
        <ele>1337.8100585938</ele>
        <time>2020-01-28T12:43:42Z</time>
      </trkpt>
      <trkpt lat="45.04848" lon="5.57039">
        <ele>1338.7700195312</ele>
        <time>2020-01-28T12:44:04Z</time>
      </trkpt>
      <trkpt lat="45.0486" lon="5.57018">
        <ele>1338.7700195312</ele>
        <time>2020-01-28T12:44:50Z</time>
      </trkpt>
      <trkpt lat="45.04871" lon="5.57009">
        <ele>1340.2199707031</ele>
        <time>2020-01-28T12:45:23Z</time>
      </trkpt>
      <trkpt lat="45.04881" lon="5.57005">
        <ele>1340.2199707031</ele>
        <time>2020-01-28T12:45:51Z</time>
      </trkpt>
      <trkpt lat="45.04892" lon="5.57011">
        <ele>1339.25</ele>
        <time>2020-01-28T12:46:02Z</time>
      </trkpt>
      <trkpt lat="45.04902" lon="5.57016">
        <ele>1338.7700195312</ele>
        <time>2020-01-28T12:46:15Z</time>
      </trkpt>
      <trkpt lat="45.04916" lon="5.57029">
        <ele>1337.3299560547</ele>
        <time>2020-01-28T12:46:52Z</time>
      </trkpt>
      <trkpt lat="45.0493" lon="5.57035">
        <ele>1336.8499755859</ele>
        <time>2020-01-28T12:47:06Z</time>
      </trkpt>
      <trkpt lat="45.04942" lon="5.57037">
        <ele>1335.8900146484</ele>
        <time>2020-01-28T12:47:15Z</time>
      </trkpt>
      <trkpt lat="45.04953" lon="5.57041">
        <ele>1334.9300537109</ele>
        <time>2020-01-28T12:47:24Z</time>
      </trkpt>
      <trkpt lat="45.04964" lon="5.57046">
        <ele>1333.9699707031</ele>
        <time>2020-01-28T12:47:34Z</time>
      </trkpt>
      <trkpt lat="45.04988" lon="5.57048">
        <ele>1333.0100097656</ele>
        <time>2020-01-28T12:48:07Z</time>
      </trkpt>
      <trkpt lat="45.05002" lon="5.57055">
        <ele>1332.0400390625</ele>
        <time>2020-01-28T12:48:21Z</time>
      </trkpt>
      <trkpt lat="45.05011" lon="5.57062">
        <ele>1331.0799560547</ele>
        <time>2020-01-28T12:48:32Z</time>
      </trkpt>
      <trkpt lat="45.05092" lon="5.57081">
        <ele>1326.2800292969</ele>
        <time>2020-01-28T12:50:04Z</time>
      </trkpt>
      <trkpt lat="45.05119" lon="5.57068">
        <ele>1325.8000488281</ele>
        <time>2020-01-28T12:50:26Z</time>
      </trkpt>
      <trkpt lat="45.05167" lon="5.57048">
        <ele>1322.9100341797</ele>
        <time>2020-01-28T12:52:05Z</time>
      </trkpt>
      <trkpt lat="45.05185" lon="5.56721">
        <ele>1285.9000244141</ele>
        <time>2020-01-28T12:58:26Z</time>
      </trkpt>
      <trkpt lat="45.05204" lon="5.56522">
        <ele>1259.4599609375</ele>
        <time>2020-01-28T13:02:11Z</time>
      </trkpt>
      <trkpt lat="45.05205" lon="5.565">
        <ele>1256.5799560547</ele>
        <time>2020-01-28T13:02:31Z</time>
      </trkpt>
      <trkpt lat="45.05209" lon="5.56386">
        <ele>1244.0799560547</ele>
        <time>2020-01-28T13:05:26Z</time>
      </trkpt>
      <trkpt lat="45.05214" lon="5.56366">
        <ele>1242.6400146484</ele>
        <time>2020-01-28T13:05:46Z</time>
      </trkpt>
      <trkpt lat="45.05212" lon="5.56354">
        <ele>1241.1999511719</ele>
        <time>2020-01-28T13:06:28Z</time>
      </trkpt>
      <trkpt lat="45.05212" lon="5.56341">
        <ele>1239.7600097656</ele>
        <time>2020-01-28T13:06:50Z</time>
      </trkpt>
      <trkpt lat="45.05215" lon="5.56327">
        <ele>1239.2800292969</ele>
        <time>2020-01-28T13:07:01Z</time>
      </trkpt>
      <trkpt lat="45.05217" lon="5.56313">
        <ele>1237.3499755859</ele>
        <time>2020-01-28T13:07:12Z</time>
      </trkpt>
      <trkpt lat="45.05219" lon="5.56298">
        <ele>1236.3900146484</ele>
        <time>2020-01-28T13:07:29Z</time>
      </trkpt>
      <trkpt lat="45.05213" lon="5.56286">
        <ele>1236.3900146484</ele>
        <time>2020-01-28T13:07:44Z</time>
      </trkpt>
      <trkpt lat="45.05212" lon="5.56272">
        <ele>1236.3900146484</ele>
        <time>2020-01-28T13:08:00Z</time>
      </trkpt>
      <trkpt lat="45.05212" lon="5.56266">
        <ele>1236.8699951172</ele>
        <time>2020-01-28T13:08:43Z</time>
      </trkpt>
      <trkpt lat="45.05213" lon="5.56281">
        <ele>1236.8699951172</ele>
        <time>2020-01-28T13:08:55Z</time>
      </trkpt>
      <trkpt lat="45.05212" lon="5.56281">
        <ele>1236.8699951172</ele>
        <time>2020-01-28T13:09:23Z</time>
      </trkpt>
      <trkpt lat="45.05214" lon="5.56283">
        <ele>1236.8699951172</ele>
        <time>2020-01-28T13:09:52Z</time>
      </trkpt>
      <trkpt lat="45.05203" lon="5.56314">
        <ele>1234.9499511719</ele>
        <time>2020-01-28T13:10:19Z</time>
      </trkpt>
      <trkpt lat="45.05194" lon="5.56338">
        <ele>1233.5100097656</ele>
        <time>2020-01-28T13:10:39Z</time>
      </trkpt>
      <trkpt lat="45.0519" lon="5.56349">
        <ele>1232.5500488281</ele>
        <time>2020-01-28T13:10:48Z</time>
      </trkpt>
      <trkpt lat="45.05183" lon="5.56364">
        <ele>1231.5899658203</ele>
        <time>2020-01-28T13:10:58Z</time>
      </trkpt>
      <trkpt lat="45.05178" lon="5.56376">
        <ele>1231.5899658203</ele>
        <time>2020-01-28T13:11:06Z</time>
      </trkpt>
      <trkpt lat="45.05172" lon="5.56386">
        <ele>1230.1400146484</ele>
        <time>2020-01-28T13:11:14Z</time>
      </trkpt>
      <trkpt lat="45.05166" lon="5.56386">
        <ele>1229.1800537109</ele>
        <time>2020-01-28T13:11:24Z</time>
      </trkpt>
      <trkpt lat="45.05169" lon="5.56373">
        <ele>1229.6600341797</ele>
        <time>2020-01-28T13:11:33Z</time>
      </trkpt>
      <trkpt lat="45.05173" lon="5.56361">
        <ele>1229.6600341797</ele>
        <time>2020-01-28T13:11:42Z</time>
      </trkpt>
      <trkpt lat="45.05177" lon="5.56348">
        <ele>1231.1099853516</ele>
        <time>2020-01-28T13:11:52Z</time>
      </trkpt>
      <trkpt lat="45.05177" lon="5.56335">
        <ele>1231.5899658203</ele>
        <time>2020-01-28T13:12:11Z</time>
      </trkpt>
      <trkpt lat="45.05196" lon="5.56353">
        <ele>1233.5100097656</ele>
        <time>2020-01-28T13:15:27Z</time>
      </trkpt>
      <trkpt lat="45.0519" lon="5.56364">
        <ele>1233.9899902344</ele>
        <time>2020-01-28T13:15:35Z</time>
      </trkpt>
      <trkpt lat="45.05204" lon="5.56343">
        <ele>1233.9899902344</ele>
        <time>2020-01-28T13:16:57Z</time>
      </trkpt>
      <trkpt lat="45.05213" lon="5.56345">
        <ele>1233.9899902344</ele>
        <time>2020-01-28T13:17:08Z</time>
      </trkpt>
      <trkpt lat="45.05181" lon="5.56332">
        <ele>1232.5500488281</ele>
        <time>2020-01-28T13:21:25Z</time>
      </trkpt>
      <trkpt lat="45.05173" lon="5.56322">
        <ele>1232.5500488281</ele>
        <time>2020-01-28T13:21:32Z</time>
      </trkpt>
      <trkpt lat="45.0517" lon="5.5632">
        <ele>1232.5500488281</ele>
        <time>2020-01-28T13:21:39Z</time>
      </trkpt>
      <trkpt lat="45.05204" lon="5.56339">
        <ele>1232.0699462891</ele>
        <time>2020-01-28T13:23:13Z</time>
      </trkpt>
      <trkpt lat="45.05219" lon="5.56351">
        <ele>1231.1099853516</ele>
        <time>2020-01-28T13:23:43Z</time>
      </trkpt>
      <trkpt lat="45.05201" lon="5.56364">
        <ele>1231.1099853516</ele>
        <time>2020-01-28T13:24:11Z</time>
      </trkpt>
      <trkpt lat="45.05209" lon="5.56367">
        <ele>1231.1099853516</ele>
        <time>2020-01-28T13:24:18Z</time>
      </trkpt>
      <trkpt lat="45.05218" lon="5.56364">
        <ele>1231.1099853516</ele>
        <time>2020-01-28T13:24:22Z</time>
      </trkpt>
      <trkpt lat="45.05228" lon="5.5636">
        <ele>1231.1099853516</ele>
        <time>2020-01-28T13:24:26Z</time>
      </trkpt>
      <trkpt lat="45.05237" lon="5.56358">
        <ele>1231.1099853516</ele>
        <time>2020-01-28T13:24:29Z</time>
      </trkpt>
      <trkpt lat="45.05245" lon="5.56357">
        <ele>1231.1099853516</ele>
        <time>2020-01-28T13:24:32Z</time>
      </trkpt>
      <trkpt lat="45.05254" lon="5.56355">
        <ele>1231.1099853516</ele>
        <time>2020-01-28T13:24:35Z</time>
      </trkpt>
      <trkpt lat="45.05263" lon="5.56355">
        <ele>1230.1400146484</ele>
        <time>2020-01-28T13:24:38Z</time>
      </trkpt>
      <trkpt lat="45.05272" lon="5.56355">
        <ele>1230.1400146484</ele>
        <time>2020-01-28T13:24:42Z</time>
      </trkpt>
      <trkpt lat="45.05278" lon="5.56359">
        <ele>1230.1400146484</ele>
        <time>2020-01-28T13:24:46Z</time>
      </trkpt>
      <trkpt lat="45.05278" lon="5.56361">
        <ele>1230.1400146484</ele>
        <time>2020-01-28T13:24:50Z</time>
      </trkpt>
      <trkpt lat="45.05207" lon="5.56353">
        <ele>1230.1400146484</ele>
        <time>2020-01-28T13:27:43Z</time>
      </trkpt>
      <trkpt lat="45.05216" lon="5.56356">
        <ele>1230.1400146484</ele>
        <time>2020-01-28T13:27:51Z</time>
      </trkpt>
      <trkpt lat="45.05224" lon="5.56357">
        <ele>1230.1400146484</ele>
        <time>2020-01-28T13:28:00Z</time>
      </trkpt>
      <trkpt lat="45.05216" lon="5.56334">
        <ele>1231.1099853516</ele>
        <time>2020-01-28T13:32:30Z</time>
      </trkpt>
      <trkpt lat="45.05151" lon="5.56349">
        <ele>1231.5899658203</ele>
        <time>2020-01-28T13:34:21Z</time>
      </trkpt>
      <trkpt lat="45.05181" lon="5.56339">
        <ele>1230.6199951172</ele>
        <time>2020-01-28T13:42:00Z</time>
      </trkpt>
      <trkpt lat="45.0519" lon="5.56299">
        <ele>1230.1400146484</ele>
        <time>2020-01-28T13:43:18Z</time>
      </trkpt>
      <trkpt lat="45.05194" lon="5.56283">
        <ele>1230.6199951172</ele>
        <time>2020-01-28T13:43:29Z</time>
      </trkpt>
      <trkpt lat="45.05197" lon="5.56269">
        <ele>1230.6199951172</ele>
        <time>2020-01-28T13:43:40Z</time>
      </trkpt>
      <trkpt lat="45.05201" lon="5.56238">
        <ele>1228.6999511719</ele>
        <time>2020-01-28T13:44:08Z</time>
      </trkpt>
      <trkpt lat="45.05206" lon="5.56223">
        <ele>1230.6199951172</ele>
        <time>2020-01-28T13:44:32Z</time>
      </trkpt>
      <trkpt lat="45.05212" lon="5.56239">
        <ele>1233.5100097656</ele>
        <time>2020-01-28T13:44:53Z</time>
      </trkpt>
      <trkpt lat="45.05222" lon="5.56241">
        <ele>1234.9499511719</ele>
        <time>2020-01-28T13:45:19Z</time>
      </trkpt>
      <trkpt lat="45.05225" lon="5.56224">
        <ele>1234.9499511719</ele>
        <time>2020-01-28T13:45:30Z</time>
      </trkpt>
      <trkpt lat="45.05226" lon="5.56208">
        <ele>1234.9499511719</ele>
        <time>2020-01-28T13:45:40Z</time>
      </trkpt>
      <trkpt lat="45.05231" lon="5.562">
        <ele>1234.9499511719</ele>
        <time>2020-01-28T13:46:12Z</time>
      </trkpt>
      <trkpt lat="45.05234" lon="5.56185">
        <ele>1234.9499511719</ele>
        <time>2020-01-28T13:46:24Z</time>
      </trkpt>
      <trkpt lat="45.05233" lon="5.5617">
        <ele>1233.9899902344</ele>
        <time>2020-01-28T13:46:34Z</time>
      </trkpt>
      <trkpt lat="45.05233" lon="5.56135">
        <ele>1233.5100097656</ele>
        <time>2020-01-28T13:47:07Z</time>
      </trkpt>
      <trkpt lat="45.05233" lon="5.56119">
        <ele>1232.0699462891</ele>
        <time>2020-01-28T13:47:18Z</time>
      </trkpt>
      <trkpt lat="45.05227" lon="5.56103">
        <ele>1232.0699462891</ele>
        <time>2020-01-28T13:47:30Z</time>
      </trkpt>
      <trkpt lat="45.05219" lon="5.56088">
        <ele>1232.0699462891</ele>
        <time>2020-01-28T13:47:41Z</time>
      </trkpt>
      <trkpt lat="45.05214" lon="5.56074">
        <ele>1231.5899658203</ele>
        <time>2020-01-28T13:47:52Z</time>
      </trkpt>
      <trkpt lat="45.05209" lon="5.56059">
        <ele>1231.1099853516</ele>
        <time>2020-01-28T13:48:04Z</time>
      </trkpt>
      <trkpt lat="45.05204" lon="5.56045">
        <ele>1230.1400146484</ele>
        <time>2020-01-28T13:48:14Z</time>
      </trkpt>
      <trkpt lat="45.05198" lon="5.56033">
        <ele>1229.6600341797</ele>
        <time>2020-01-28T13:48:23Z</time>
      </trkpt>
      <trkpt lat="45.05194" lon="5.56018">
        <ele>1228.6999511719</ele>
        <time>2020-01-28T13:48:33Z</time>
      </trkpt>
      <trkpt lat="45.05192" lon="5.55999">
        <ele>1227.7399902344</ele>
        <time>2020-01-28T13:48:45Z</time>
      </trkpt>
      <trkpt lat="45.05188" lon="5.5598">
        <ele>1226.3000488281</ele>
        <time>2020-01-28T13:48:56Z</time>
      </trkpt>
      <trkpt lat="45.05186" lon="5.55964">
        <ele>1225.3399658203</ele>
        <time>2020-01-28T13:49:06Z</time>
      </trkpt>
      <trkpt lat="45.05186" lon="5.55951">
        <ele>1224.8599853516</ele>
        <time>2020-01-28T13:49:16Z</time>
      </trkpt>
      <trkpt lat="45.05185" lon="5.55936">
        <ele>1223.9000244141</ele>
        <time>2020-01-28T13:49:26Z</time>
      </trkpt>
      <trkpt lat="45.05184" lon="5.55921">
        <ele>1222.9300537109</ele>
        <time>2020-01-28T13:49:36Z</time>
      </trkpt>
      <trkpt lat="45.05181" lon="5.55908">
        <ele>1222.9300537109</ele>
        <time>2020-01-28T13:49:46Z</time>
      </trkpt>
      <trkpt lat="45.05177" lon="5.55893">
        <ele>1221.9699707031</ele>
        <time>2020-01-28T13:50:00Z</time>
      </trkpt>
      <trkpt lat="45.05153" lon="5.55839">
        <ele>1213.3199462891</ele>
        <time>2020-01-28T13:50:50Z</time>
      </trkpt>
      <trkpt lat="45.05116" lon="5.55719">
        <ele>1200.3399658203</ele>
        <time>2020-01-28T13:53:45Z</time>
      </trkpt>
      <trkpt lat="45.05106" lon="5.55707">
        <ele>1197.4599609375</ele>
        <time>2020-01-28T13:54:06Z</time>
      </trkpt>
      <trkpt lat="45.05099" lon="5.55694">
        <ele>1195.5400390625</ele>
        <time>2020-01-28T13:54:21Z</time>
      </trkpt>
      <trkpt lat="45.05094" lon="5.55684">
        <ele>1194.0899658203</ele>
        <time>2020-01-28T13:54:38Z</time>
      </trkpt>
      <trkpt lat="45.05086" lon="5.55666">
        <ele>1192.1700439453</ele>
        <time>2020-01-28T13:55:34Z</time>
      </trkpt>
      <trkpt lat="45.05081" lon="5.55651">
        <ele>1189.7700195312</ele>
        <time>2020-01-28T13:55:45Z</time>
      </trkpt>
      <trkpt lat="45.05076" lon="5.55635">
        <ele>1188.8100585938</ele>
        <time>2020-01-28T13:55:57Z</time>
      </trkpt>
      <trkpt lat="45.05067" lon="5.55612">
        <ele>1186.4000244141</ele>
        <time>2020-01-28T13:56:20Z</time>
      </trkpt>
      <trkpt lat="45.05053" lon="5.55582">
        <ele>1183.0400390625</ele>
        <time>2020-01-28T13:58:06Z</time>
      </trkpt>
      <trkpt lat="45.05037" lon="5.55561">
        <ele>1180.1600341797</ele>
        <time>2020-01-28T13:58:34Z</time>
      </trkpt>
      <trkpt lat="45.05022" lon="5.55531">
        <ele>1176.7900390625</ele>
        <time>2020-01-28T13:59:46Z</time>
      </trkpt>
      <trkpt lat="45.05005" lon="5.55504">
        <ele>1172.4699707031</ele>
        <time>2020-01-28T14:01:11Z</time>
      </trkpt>
      <trkpt lat="45.05001" lon="5.55494">
        <ele>1171.0200195312</ele>
        <time>2020-01-28T14:02:02Z</time>
      </trkpt>
      <trkpt lat="45.04995" lon="5.55482">
        <ele>1168.6199951172</ele>
        <time>2020-01-28T14:02:15Z</time>
      </trkpt>
      <trkpt lat="45.04988" lon="5.55472">
        <ele>1167.1800537109</ele>
        <time>2020-01-28T14:02:31Z</time>
      </trkpt>
      <trkpt lat="45.04981" lon="5.55456">
        <ele>1165.2600097656</ele>
        <time>2020-01-28T14:02:45Z</time>
      </trkpt>
      <trkpt lat="45.04977" lon="5.55443">
        <ele>1163.3299560547</ele>
        <time>2020-01-28T14:02:57Z</time>
      </trkpt>
      <trkpt lat="45.04972" lon="5.55431">
        <ele>1161.8900146484</ele>
        <time>2020-01-28T14:03:09Z</time>
      </trkpt>
      <trkpt lat="45.04965" lon="5.55404">
        <ele>1159.0100097656</ele>
        <time>2020-01-28T14:04:14Z</time>
      </trkpt>
      <trkpt lat="45.04959" lon="5.55393">
        <ele>1157.5600585938</ele>
        <time>2020-01-28T14:04:30Z</time>
      </trkpt>
      <trkpt lat="45.04951" lon="5.55383">
        <ele>1155.6400146484</ele>
        <time>2020-01-28T14:04:45Z</time>
      </trkpt>
      <trkpt lat="45.0494" lon="5.55371">
        <ele>1153.7199707031</ele>
        <time>2020-01-28T14:05:03Z</time>
      </trkpt>
      <trkpt lat="45.0493" lon="5.5536">
        <ele>1151.8000488281</ele>
        <time>2020-01-28T14:05:17Z</time>
      </trkpt>
      <trkpt lat="45.0492" lon="5.55348">
        <ele>1150.3499755859</ele>
        <time>2020-01-28T14:05:31Z</time>
      </trkpt>
      <trkpt lat="45.04912" lon="5.55337">
        <ele>1147.9499511719</ele>
        <time>2020-01-28T14:05:45Z</time>
      </trkpt>
      <trkpt lat="45.04904" lon="5.55324">
        <ele>1146.0300292969</ele>
        <time>2020-01-28T14:05:59Z</time>
      </trkpt>
      <trkpt lat="45.04898" lon="5.55311">
        <ele>1144.5899658203</ele>
        <time>2020-01-28T14:06:11Z</time>
      </trkpt>
      <trkpt lat="45.04891" lon="5.55302">
        <ele>1142.1800537109</ele>
        <time>2020-01-28T14:06:23Z</time>
      </trkpt>
      <trkpt lat="45.04884" lon="5.5529">
        <ele>1140.7399902344</ele>
        <time>2020-01-28T14:06:41Z</time>
      </trkpt>
      <trkpt lat="45.04877" lon="5.5528">
        <ele>1139.3000488281</ele>
        <time>2020-01-28T14:06:57Z</time>
      </trkpt>
      <trkpt lat="45.0487" lon="5.5527">
        <ele>1137.8599853516</ele>
        <time>2020-01-28T14:07:09Z</time>
      </trkpt>
      <trkpt lat="45.04862" lon="5.55258">
        <ele>1136.4200439453</ele>
        <time>2020-01-28T14:07:21Z</time>
      </trkpt>
      <trkpt lat="45.04856" lon="5.55247">
        <ele>1134.0100097656</ele>
        <time>2020-01-28T14:07:32Z</time>
      </trkpt>
      <trkpt lat="45.04849" lon="5.55234">
        <ele>1132.0899658203</ele>
        <time>2020-01-28T14:07:43Z</time>
      </trkpt>
      <trkpt lat="45.04845" lon="5.55224">
        <ele>1129.6899414062</ele>
        <time>2020-01-28T14:07:55Z</time>
      </trkpt>
      <trkpt lat="45.04838" lon="5.55226">
        <ele>1128.7299804688</ele>
        <time>2020-01-28T14:08:13Z</time>
      </trkpt>
      <trkpt lat="45.04844" lon="5.55215">
        <ele>1127.7600097656</ele>
        <time>2020-01-28T14:09:45Z</time>
      </trkpt>
      <trkpt lat="45.04852" lon="5.55206">
        <ele>1127.7600097656</ele>
        <time>2020-01-28T14:10:06Z</time>
      </trkpt>
      <trkpt lat="45.04863" lon="5.55202">
        <ele>1127.7600097656</ele>
        <time>2020-01-28T14:10:18Z</time>
      </trkpt>
      <trkpt lat="45.04873" lon="5.55202">
        <ele>1128.2399902344</ele>
        <time>2020-01-28T14:10:28Z</time>
      </trkpt>
      <trkpt lat="45.04882" lon="5.55203">
        <ele>1128.2399902344</ele>
        <time>2020-01-28T14:10:37Z</time>
      </trkpt>
      <trkpt lat="45.04892" lon="5.55206">
        <ele>1128.2399902344</ele>
        <time>2020-01-28T14:10:47Z</time>
      </trkpt>
      <trkpt lat="45.04902" lon="5.5521">
        <ele>1127.7600097656</ele>
        <time>2020-01-28T14:10:56Z</time>
      </trkpt>
      <trkpt lat="45.04912" lon="5.5521">
        <ele>1127.2800292969</ele>
        <time>2020-01-28T14:11:06Z</time>
      </trkpt>
      <trkpt lat="45.04922" lon="5.55209">
        <ele>1125.8399658203</ele>
        <time>2020-01-28T14:11:15Z</time>
      </trkpt>
      <trkpt lat="45.04932" lon="5.55207">
        <ele>1124.8800048828</ele>
        <time>2020-01-28T14:11:24Z</time>
      </trkpt>
      <trkpt lat="45.04944" lon="5.55206">
        <ele>1123.9200439453</ele>
        <time>2020-01-28T14:11:34Z</time>
      </trkpt>
      <trkpt lat="45.04957" lon="5.55205">
        <ele>1123.9200439453</ele>
        <time>2020-01-28T14:11:46Z</time>
      </trkpt>
      <trkpt lat="45.04975" lon="5.552">
        <ele>1123.9200439453</ele>
        <time>2020-01-28T14:12:43Z</time>
      </trkpt>
      <trkpt lat="45.04985" lon="5.552">
        <ele>1123.9200439453</ele>
        <time>2020-01-28T14:12:58Z</time>
      </trkpt>
      <trkpt lat="45.04996" lon="5.55196">
        <ele>1123.9200439453</ele>
        <time>2020-01-28T14:13:14Z</time>
      </trkpt>
      <trkpt lat="45.05006" lon="5.55191">
        <ele>1122.4799804688</ele>
        <time>2020-01-28T14:13:24Z</time>
      </trkpt>
      <trkpt lat="45.05016" lon="5.55188">
        <ele>1121.5200195312</ele>
        <time>2020-01-28T14:13:34Z</time>
      </trkpt>
      <trkpt lat="45.05025" lon="5.55185">
        <ele>1120.0699462891</ele>
        <time>2020-01-28T14:13:45Z</time>
      </trkpt>
      <trkpt lat="45.05035" lon="5.55184">
        <ele>1118.1500244141</ele>
        <time>2020-01-28T14:14:01Z</time>
      </trkpt>
      <trkpt lat="45.05045" lon="5.55185">
        <ele>1117.1899414062</ele>
        <time>2020-01-28T14:14:12Z</time>
      </trkpt>
      <trkpt lat="45.05055" lon="5.55187">
        <ele>1115.2700195312</ele>
        <time>2020-01-28T14:14:22Z</time>
      </trkpt>
      <trkpt lat="45.05064" lon="5.5519">
        <ele>1114.3100585938</ele>
        <time>2020-01-28T14:15:00Z</time>
      </trkpt>
      <trkpt lat="45.05072" lon="5.55199">
        <ele>1113.8199462891</ele>
        <time>2020-01-28T14:15:13Z</time>
      </trkpt>
      <trkpt lat="45.05079" lon="5.55209">
        <ele>1112.8599853516</ele>
        <time>2020-01-28T14:15:23Z</time>
      </trkpt>
      <trkpt lat="45.05087" lon="5.55215">
        <ele>1111.4200439453</ele>
        <time>2020-01-28T14:15:32Z</time>
      </trkpt>
      <trkpt lat="45.05096" lon="5.55222">
        <ele>1110.4599609375</ele>
        <time>2020-01-28T14:15:42Z</time>
      </trkpt>
      <trkpt lat="45.05105" lon="5.55229">
        <ele>1109.5</ele>
        <time>2020-01-28T14:15:52Z</time>
      </trkpt>
      <trkpt lat="45.05114" lon="5.55234">
        <ele>1109.5</ele>
        <time>2020-01-28T14:16:02Z</time>
      </trkpt>
      <trkpt lat="45.05124" lon="5.5524">
        <ele>1108.5400390625</ele>
        <time>2020-01-28T14:16:12Z</time>
      </trkpt>
      <trkpt lat="45.05133" lon="5.55244">
        <ele>1109.5</ele>
        <time>2020-01-28T14:16:21Z</time>
      </trkpt>
      <trkpt lat="45.05141" lon="5.55249">
        <ele>1109.9799804688</ele>
        <time>2020-01-28T14:16:32Z</time>
      </trkpt>
      <trkpt lat="45.05162" lon="5.55263">
        <ele>1111.4200439453</ele>
        <time>2020-01-28T14:17:14Z</time>
      </trkpt>
      <trkpt lat="45.05174" lon="5.55274">
        <ele>1112.3800048828</ele>
        <time>2020-01-28T14:21:30Z</time>
      </trkpt>
      <trkpt lat="45.05182" lon="5.55283">
        <ele>1112.3800048828</ele>
        <time>2020-01-28T14:21:41Z</time>
      </trkpt>
      <trkpt lat="45.05191" lon="5.55291">
        <ele>1110.9399414062</ele>
        <time>2020-01-28T14:21:51Z</time>
      </trkpt>
      <trkpt lat="45.05203" lon="5.55296">
        <ele>1110.9399414062</ele>
        <time>2020-01-28T14:22:02Z</time>
      </trkpt>
      <trkpt lat="45.05214" lon="5.55293">
        <ele>1110.9399414062</ele>
        <time>2020-01-28T14:22:11Z</time>
      </trkpt>
      <trkpt lat="45.05225" lon="5.5529">
        <ele>1112.3800048828</ele>
        <time>2020-01-28T14:22:19Z</time>
      </trkpt>
      <trkpt lat="45.05235" lon="5.55287">
        <ele>1114.3100585938</ele>
        <time>2020-01-28T14:22:27Z</time>
      </trkpt>
      <trkpt lat="45.05248" lon="5.55288">
        <ele>1115.2700195312</ele>
        <time>2020-01-28T14:22:39Z</time>
      </trkpt>
      <trkpt lat="45.05259" lon="5.55289">
        <ele>1116.2299804688</ele>
        <time>2020-01-28T14:22:47Z</time>
      </trkpt>
      <trkpt lat="45.05267" lon="5.55294">
        <ele>1118.1500244141</ele>
        <time>2020-01-28T14:22:57Z</time>
      </trkpt>
      <trkpt lat="45.05276" lon="5.55297">
        <ele>1120.0699462891</ele>
        <time>2020-01-28T14:23:07Z</time>
      </trkpt>
      <trkpt lat="45.05285" lon="5.553">
        <ele>1121.0300292969</ele>
        <time>2020-01-28T14:23:17Z</time>
      </trkpt>
      <trkpt lat="45.05296" lon="5.55303">
        <ele>1122.4799804688</ele>
        <time>2020-01-28T14:23:26Z</time>
      </trkpt>
      <trkpt lat="45.05305" lon="5.55306">
        <ele>1123.9200439453</ele>
        <time>2020-01-28T14:23:37Z</time>
      </trkpt>
      <trkpt lat="45.05314" lon="5.55309">
        <ele>1124.8800048828</ele>
        <time>2020-01-28T14:23:49Z</time>
      </trkpt>
      <trkpt lat="45.05323" lon="5.55313">
        <ele>1126.3199462891</ele>
        <time>2020-01-28T14:23:59Z</time>
      </trkpt>
      <trkpt lat="45.05333" lon="5.55317">
        <ele>1127.2800292969</ele>
        <time>2020-01-28T14:24:09Z</time>
      </trkpt>
      <trkpt lat="45.05341" lon="5.55322">
        <ele>1128.2399902344</ele>
        <time>2020-01-28T14:24:18Z</time>
      </trkpt>
      <trkpt lat="45.05356" lon="5.55334">
        <ele>1128.7299804688</ele>
        <time>2020-01-28T14:24:38Z</time>
      </trkpt>
      <trkpt lat="45.05368" lon="5.55341">
        <ele>1127.7600097656</ele>
        <time>2020-01-28T14:25:01Z</time>
      </trkpt>
      <trkpt lat="45.05378" lon="5.55347">
        <ele>1126.3199462891</ele>
        <time>2020-01-28T14:25:13Z</time>
      </trkpt>
      <trkpt lat="45.05387" lon="5.55353">
        <ele>1124.8800048828</ele>
        <time>2020-01-28T14:25:24Z</time>
      </trkpt>
      <trkpt lat="45.05397" lon="5.55358">
        <ele>1122.9599609375</ele>
        <time>2020-01-28T14:25:37Z</time>
      </trkpt>
      <trkpt lat="45.05407" lon="5.55365">
        <ele>1121.0300292969</ele>
        <time>2020-01-28T14:25:51Z</time>
      </trkpt>
      <trkpt lat="45.05415" lon="5.55375">
        <ele>1120.0699462891</ele>
        <time>2020-01-28T14:26:03Z</time>
      </trkpt>
      <trkpt lat="45.05424" lon="5.55385">
        <ele>1118.1500244141</ele>
        <time>2020-01-28T14:26:15Z</time>
      </trkpt>
      <trkpt lat="45.05432" lon="5.55395">
        <ele>1117.1899414062</ele>
        <time>2020-01-28T14:26:28Z</time>
      </trkpt>
      <trkpt lat="45.05439" lon="5.55402">
        <ele>1113.8199462891</ele>
        <time>2020-01-28T14:27:10Z</time>
      </trkpt>
      <trkpt lat="45.05443" lon="5.55414">
        <ele>1113.8199462891</ele>
        <time>2020-01-28T14:27:26Z</time>
      </trkpt>
      <trkpt lat="45.05453" lon="5.55435">
        <ele>1112.8599853516</ele>
        <time>2020-01-28T14:27:51Z</time>
      </trkpt>
      <trkpt lat="45.05473" lon="5.55461">
        <ele>1109.0200195312</ele>
        <time>2020-01-28T14:28:36Z</time>
      </trkpt>
      <trkpt lat="45.05505" lon="5.55495">
        <ele>1101.8100585938</ele>
        <time>2020-01-28T14:29:22Z</time>
      </trkpt>
      <trkpt lat="45.05615" lon="5.55599">
        <ele>1083.0600585938</ele>
        <time>2020-01-28T14:31:56Z</time>
      </trkpt>
      <trkpt lat="45.05637" lon="5.55616">
        <ele>1080.1800537109</ele>
        <time>2020-01-28T14:32:29Z</time>
      </trkpt>
      <trkpt lat="45.05686" lon="5.5564">
        <ele>1077.2900390625</ele>
        <time>2020-01-28T14:33:22Z</time>
      </trkpt>
      <trkpt lat="45.05713" lon="5.55635">
        <ele>1076.8100585938</ele>
        <time>2020-01-28T14:34:09Z</time>
      </trkpt>
      <trkpt lat="45.05724" lon="5.55631">
        <ele>1078.2600097656</ele>
        <time>2020-01-28T14:34:25Z</time>
      </trkpt>
      <trkpt lat="45.05733" lon="5.55629">
        <ele>1076.8100585938</ele>
        <time>2020-01-28T14:34:35Z</time>
      </trkpt>
      <trkpt lat="45.05742" lon="5.55624">
        <ele>1076.8100585938</ele>
        <time>2020-01-28T14:34:45Z</time>
      </trkpt>
      <trkpt lat="45.05751" lon="5.55619">
        <ele>1075.8499755859</ele>
        <time>2020-01-28T14:34:56Z</time>
      </trkpt>
      <trkpt lat="45.05765" lon="5.55623">
        <ele>1075.8499755859</ele>
        <time>2020-01-28T14:35:15Z</time>
      </trkpt>
      <trkpt lat="45.05785" lon="5.55619">
        <ele>1076.8100585938</ele>
        <time>2020-01-28T14:35:35Z</time>
      </trkpt>
      <trkpt lat="45.05797" lon="5.55613">
        <ele>1076.3299560547</ele>
        <time>2020-01-28T14:35:47Z</time>
      </trkpt>
      <trkpt lat="45.05808" lon="5.55604">
        <ele>1075.3699951172</ele>
        <time>2020-01-28T14:35:58Z</time>
      </trkpt>
      <trkpt lat="45.05818" lon="5.55597">
        <ele>1075.3699951172</ele>
        <time>2020-01-28T14:36:09Z</time>
      </trkpt>
      <trkpt lat="45.0584" lon="5.55578">
        <ele>1072.9699707031</ele>
        <time>2020-01-28T14:36:34Z</time>
      </trkpt>
      <trkpt lat="45.05851" lon="5.55569">
        <ele>1072.4899902344</ele>
        <time>2020-01-28T14:36:52Z</time>
      </trkpt>
      <trkpt lat="45.05862" lon="5.55562">
        <ele>1071.0500488281</ele>
        <time>2020-01-28T14:37:17Z</time>
      </trkpt>
      <trkpt lat="45.05872" lon="5.55556">
        <ele>1072.4899902344</ele>
        <time>2020-01-28T14:37:27Z</time>
      </trkpt>
      <trkpt lat="45.05884" lon="5.5555">
        <ele>1072.4899902344</ele>
        <time>2020-01-28T14:37:41Z</time>
      </trkpt>
      <trkpt lat="45.05898" lon="5.55545">
        <ele>1072.4899902344</ele>
        <time>2020-01-28T14:37:56Z</time>
      </trkpt>
      <trkpt lat="45.05915" lon="5.55537">
        <ele>1069.1199951172</ele>
        <time>2020-01-28T14:38:18Z</time>
      </trkpt>
      <trkpt lat="45.05923" lon="5.55542">
        <ele>1067.1999511719</ele>
        <time>2020-01-28T14:38:44Z</time>
      </trkpt>
      <trkpt lat="45.05954" lon="5.55568">
        <ele>1058.5500488281</ele>
        <time>2020-01-28T14:40:00Z</time>
      </trkpt>
      <trkpt lat="45.0596" lon="5.5557">
        <ele>1058.0699462891</ele>
        <time>2020-01-28T14:41:17Z</time>
      </trkpt>
      <trkpt lat="45.05968" lon="5.55571">
        <ele>1058.0699462891</ele>
        <time>2020-01-28T14:41:52Z</time>
      </trkpt>
      <trkpt lat="45.05972" lon="5.55575">
        <ele>1057.5899658203</ele>
        <time>2020-01-28T14:42:40Z</time>
      </trkpt>
      <trkpt lat="45.05975" lon="5.55587">
        <ele>1057.5899658203</ele>
        <time>2020-01-28T14:42:58Z</time>
      </trkpt>
      <trkpt lat="45.05981" lon="5.55597">
        <ele>1057.1099853516</ele>
        <time>2020-01-28T14:43:17Z</time>
      </trkpt>
      <trkpt lat="45.0599" lon="5.55602">
        <ele>1056.1500244141</ele>
        <time>2020-01-28T14:43:53Z</time>
      </trkpt>
      <trkpt lat="45.06001" lon="5.55608">
        <ele>1055.6700439453</ele>
        <time>2020-01-28T14:44:12Z</time>
      </trkpt>
      <trkpt lat="45.0601" lon="5.55615">
        <ele>1054.2199707031</ele>
        <time>2020-01-28T14:44:23Z</time>
      </trkpt>
      <trkpt lat="45.06021" lon="5.55624">
        <ele>1053.7399902344</ele>
        <time>2020-01-28T14:44:36Z</time>
      </trkpt>
      <trkpt lat="45.06031" lon="5.5563">
        <ele>1053.7399902344</ele>
        <time>2020-01-28T14:44:47Z</time>
      </trkpt>
      <trkpt lat="45.06041" lon="5.5563">
        <ele>1052.7800292969</ele>
        <time>2020-01-28T14:44:59Z</time>
      </trkpt>
      <trkpt lat="45.06051" lon="5.55638">
        <ele>1050.8599853516</ele>
        <time>2020-01-28T14:45:16Z</time>
      </trkpt>
      <trkpt lat="45.06062" lon="5.55642">
        <ele>1050.8599853516</ele>
        <time>2020-01-28T14:45:30Z</time>
      </trkpt>
      <trkpt lat="45.06073" lon="5.55642">
        <ele>1050.8599853516</ele>
        <time>2020-01-28T14:45:43Z</time>
      </trkpt>
      <trkpt lat="45.06084" lon="5.55634">
        <ele>1051.8199462891</ele>
        <time>2020-01-28T14:45:56Z</time>
      </trkpt>
      <trkpt lat="45.06092" lon="5.55625">
        <ele>1050.8599853516</ele>
        <time>2020-01-28T14:46:09Z</time>
      </trkpt>
      <trkpt lat="45.06103" lon="5.55613">
        <ele>1050.8599853516</ele>
        <time>2020-01-28T14:46:26Z</time>
      </trkpt>
      <trkpt lat="45.06111" lon="5.55601">
        <ele>1052.3000488281</ele>
        <time>2020-01-28T14:46:38Z</time>
      </trkpt>
      <trkpt lat="45.0612" lon="5.55592">
        <ele>1053.2600097656</ele>
        <time>2020-01-28T14:46:50Z</time>
      </trkpt>
      <trkpt lat="45.06129" lon="5.55583">
        <ele>1054.2199707031</ele>
        <time>2020-01-28T14:47:00Z</time>
      </trkpt>
      <trkpt lat="45.06137" lon="5.55572">
        <ele>1059.9899902344</ele>
        <time>2020-01-28T14:47:10Z</time>
      </trkpt>
      <trkpt lat="45.06145" lon="5.55564">
        <ele>1058.0699462891</ele>
        <time>2020-01-28T14:47:21Z</time>
      </trkpt>
      <trkpt lat="45.06152" lon="5.55555">
        <ele>1058.0699462891</ele>
        <time>2020-01-28T14:47:33Z</time>
      </trkpt>
      <trkpt lat="45.0616" lon="5.55548">
        <ele>1057.1099853516</ele>
        <time>2020-01-28T14:47:45Z</time>
      </trkpt>
      <trkpt lat="45.06168" lon="5.55536">
        <ele>1056.1500244141</ele>
        <time>2020-01-28T14:48:05Z</time>
      </trkpt>
      <trkpt lat="45.06173" lon="5.55522">
        <ele>1055.1800537109</ele>
        <time>2020-01-28T14:48:16Z</time>
      </trkpt>
      <trkpt lat="45.06177" lon="5.55508">
        <ele>1055.1800537109</ele>
        <time>2020-01-28T14:48:28Z</time>
      </trkpt>
      <trkpt lat="45.06183" lon="5.55496">
        <ele>1054.6999511719</ele>
        <time>2020-01-28T14:48:40Z</time>
      </trkpt>
      <trkpt lat="45.06189" lon="5.55484">
        <ele>1054.2199707031</ele>
        <time>2020-01-28T14:48:51Z</time>
      </trkpt>
      <trkpt lat="45.06197" lon="5.55473">
        <ele>1053.7399902344</ele>
        <time>2020-01-28T14:49:03Z</time>
      </trkpt>
      <trkpt lat="45.06204" lon="5.55462">
        <ele>1053.2600097656</ele>
        <time>2020-01-28T14:49:14Z</time>
      </trkpt>
      <trkpt lat="45.06211" lon="5.55454">
        <ele>1052.3000488281</ele>
        <time>2020-01-28T14:49:24Z</time>
      </trkpt>
      <trkpt lat="45.06218" lon="5.55446">
        <ele>1051.3399658203</ele>
        <time>2020-01-28T14:49:35Z</time>
      </trkpt>
      <trkpt lat="45.06227" lon="5.55438">
        <ele>1050.3800048828</ele>
        <time>2020-01-28T14:49:45Z</time>
      </trkpt>
      <trkpt lat="45.06235" lon="5.5543">
        <ele>1050.3800048828</ele>
        <time>2020-01-28T14:49:54Z</time>
      </trkpt>
      <trkpt lat="45.06244" lon="5.55425">
        <ele>1049.4200439453</ele>
        <time>2020-01-28T14:50:04Z</time>
      </trkpt>
      <trkpt lat="45.06253" lon="5.55419">
        <ele>1049.4200439453</ele>
        <time>2020-01-28T14:50:13Z</time>
      </trkpt>
      <trkpt lat="45.06261" lon="5.55415">
        <ele>1049.4200439453</ele>
        <time>2020-01-28T14:50:21Z</time>
      </trkpt>
      <trkpt lat="45.06271" lon="5.55412">
        <ele>1049.4200439453</ele>
        <time>2020-01-28T14:50:30Z</time>
      </trkpt>
      <trkpt lat="45.0628" lon="5.5541">
        <ele>1049.4200439453</ele>
        <time>2020-01-28T14:50:39Z</time>
      </trkpt>
      <trkpt lat="45.06289" lon="5.5541">
        <ele>1050.8599853516</ele>
        <time>2020-01-28T14:50:48Z</time>
      </trkpt>
      <trkpt lat="45.06299" lon="5.55412">
        <ele>1050.8599853516</ele>
        <time>2020-01-28T14:50:58Z</time>
      </trkpt>
      <trkpt lat="45.06309" lon="5.55415">
        <ele>1050.8599853516</ele>
        <time>2020-01-28T14:51:08Z</time>
      </trkpt>
      <trkpt lat="45.06318" lon="5.55418">
        <ele>1050.8599853516</ele>
        <time>2020-01-28T14:51:17Z</time>
      </trkpt>
      <trkpt lat="45.06328" lon="5.55423">
        <ele>1050.8599853516</ele>
        <time>2020-01-28T14:51:27Z</time>
      </trkpt>
      <trkpt lat="45.06338" lon="5.55426">
        <ele>1051.3399658203</ele>
        <time>2020-01-28T14:51:37Z</time>
      </trkpt>
      <trkpt lat="45.06351" lon="5.55429">
        <ele>1051.3399658203</ele>
        <time>2020-01-28T14:51:50Z</time>
      </trkpt>
      <trkpt lat="45.06375" lon="5.55434">
        <ele>1053.2600097656</ele>
        <time>2020-01-28T14:52:18Z</time>
      </trkpt>
      <trkpt lat="45.06387" lon="5.55437">
        <ele>1053.7399902344</ele>
        <time>2020-01-28T14:52:28Z</time>
      </trkpt>
      <trkpt lat="45.06396" lon="5.55442">
        <ele>1053.7399902344</ele>
        <time>2020-01-28T14:52:38Z</time>
      </trkpt>
      <trkpt lat="45.06406" lon="5.55447">
        <ele>1053.7399902344</ele>
        <time>2020-01-28T14:52:48Z</time>
      </trkpt>
      <trkpt lat="45.06415" lon="5.55452">
        <ele>1053.7399902344</ele>
        <time>2020-01-28T14:52:59Z</time>
      </trkpt>
      <trkpt lat="45.06423" lon="5.55458">
        <ele>1053.7399902344</ele>
        <time>2020-01-28T14:53:15Z</time>
      </trkpt>
      <trkpt lat="45.06428" lon="5.55469">
        <ele>1052.7800292969</ele>
        <time>2020-01-28T14:53:51Z</time>
      </trkpt>
      <trkpt lat="45.0643" lon="5.55479">
        <ele>1052.3000488281</ele>
        <time>2020-01-28T14:56:02Z</time>
      </trkpt>
      <trkpt lat="45.06429" lon="5.55492">
        <ele>1052.3000488281</ele>
        <time>2020-01-28T14:56:24Z</time>
      </trkpt>
      <trkpt lat="45.06428" lon="5.55506">
        <ele>1052.3000488281</ele>
        <time>2020-01-28T14:56:36Z</time>
      </trkpt>
      <trkpt lat="45.06425" lon="5.5552">
        <ele>1052.3000488281</ele>
        <time>2020-01-28T14:56:47Z</time>
      </trkpt>
      <trkpt lat="45.06422" lon="5.55535">
        <ele>1051.8199462891</ele>
        <time>2020-01-28T14:56:58Z</time>
      </trkpt>
      <trkpt lat="45.06419" lon="5.55549">
        <ele>1051.8199462891</ele>
        <time>2020-01-28T14:57:10Z</time>
      </trkpt>
      <trkpt lat="45.06426" lon="5.55553">
        <ele>1050.3800048828</ele>
        <time>2020-01-28T14:57:35Z</time>
      </trkpt>
      <trkpt lat="45.06437" lon="5.5556">
        <ele>1047.0100097656</ele>
        <time>2020-01-28T14:57:51Z</time>
      </trkpt>
      <trkpt lat="45.06448" lon="5.55564">
        <ele>1044.1300048828</ele>
        <time>2020-01-28T14:58:04Z</time>
      </trkpt>
      <trkpt lat="45.06457" lon="5.55567">
        <ele>1040.7600097656</ele>
        <time>2020-01-28T14:58:18Z</time>
      </trkpt>
      <trkpt lat="45.06467" lon="5.5557">
        <ele>1037.8800048828</ele>
        <time>2020-01-28T14:58:32Z</time>
      </trkpt>
      <trkpt lat="45.06477" lon="5.55572">
        <ele>1035.4799804688</ele>
        <time>2020-01-28T14:58:45Z</time>
      </trkpt>
      <trkpt lat="45.06477" lon="5.55607">
        <ele>1033.5500488281</ele>
        <time>2020-01-28T14:59:29Z</time>
      </trkpt>
      <trkpt lat="45.06473" lon="5.55625">
        <ele>1035.4799804688</ele>
        <time>2020-01-28T15:01:23Z</time>
      </trkpt>
    </trkseg>
  </trk>
</gpx>